Accueil
METAR-TAF:

METAR-TAF

Aéroports :

Aéroport international de Koweït

Koweït, Koweït

latitude: 29-13N, longitude: 047-59E, altitude: 55 m

Observation

Le bulletin a été fait il y a 27 minutes, à 06:00 UTC
Vent 18 kt de nord/nord-ouest
Température 38°C
Humidité 17%
Pression 1005 hPa
Visibilité 10 km ou plus
pas de nuages en-dessous de 1500 mètres et pas de cumulonimbus.

METAR: OKBK 210600Z 34018KT CAVOK 38/09 Q1005 NOSIG

Heure: 09:27 (06:27 UTC)

Prévision

Le bulletin a été fait il y a 1 heure et 42 minutes, à 04:45 UTC
Prévision valable du 21 à 06 UTC au 22 à 12 UTC
Vent 12 kt de nord/nord-ouest avec des rafales jusqu'à 25 kt
Visibilité: 6000 m
Ciel clair
Temporairement
du 21 à 06 UTC au 21 à 15 UTC
Visibilité: 1500 m
Chasse-poussière élevée

TAF: OKBK 210445Z 2106/2212 34012G25KT 6000 SKC TEMPO 2106/2115 1500 BLDU

Observations et prévisions météorologiques de plus de 4000 aéroports (messages METAR et TAF).

Les stations disponibles sont représentées par des disques jaunes et rouges sur la carte.

Passer la souris dessus pour voir le nom de la station.

Cliquer dessus pour voir les observations et prévisions météorologiques.

Pour changer de carte: cliquez sur les boutons verts avec une croix noire pour zoomer, sur le bouton vert avec un tiret pour effectuer un zoom arrière, ou sur les flèches vertes pour les cartes adjacentes.


METAR-TAF: